Time;durP1;ratioP1;P1;durP2;ratioP2;P2;SDS_P1;SDS_P2;PMS_P1;PMS_P2;Temp;Humidity;BMP_temperature;BMP_pressure;BME280_temperature;BME280_humidity;BME280_pressure;Samples;Min_cycle;Max_cycle;Signal;HPM_P1;HPM_P2
2022/01/18 00:01:52;;;;;;;20.98;5.65;;;;;;;2.07;96.88;103730.50;5021142;28;20129;-76
2022/01/18 00:04:18;;;;;;;26.40;5.30;;;;;;;2.15;96.47;103728.78;5029982;28;20029;-76
2022/01/18 00:06:48;;;;;;;21.98;5.28;;;;;;;2.21;96.55;103729.72;5021504;28;20080;-77
2022/01/18 00:09:13;;;;;;;21.35;4.32;;;;;;;2.26;96.40;103730.66;5010271;28;20088;-74
2022/01/18 00:11:56;;;;;;;17.65;4.60;;;;;;;2.28;95.96;103731.59;5017523;28;20159;-75
2022/01/18 00:14:27;;;;;;;18.52;3.65;;;;;;;2.34;96.52;103727.16;5015772;28;20026;-76
2022/01/18 00:19:40;;;;;;;25.75;4.28;;;;;;;2.36;96.23;103734.31;5012431;28;20037;-75
2022/01/18 00:22:12;;;;;;;23.27;4.97;;;;;;;2.40;96.56;103737.94;5027162;28;20043;-73
2022/01/18 00:24:39;;;;;;;19.98;4.70;;;;;;;2.44;96.51;103735.28;5029619;28;20488;-76
2022/01/18 00:27:09;;;;;;;15.52;4.60;;;;;;;2.49;96.36;103729.97;5028999;28;20112;-75
2022/01/18 00:29:39;;;;;;;16.45;6.07;;;;;;;2.51;96.37;103733.53;5027723;28;20029;-74
2022/01/18 00:32:12;;;;;;;20.77;4.70;;;;;;;2.52;96.45;103730.00;5023101;28;20115;-74
2022/01/18 00:34:39;;;;;;;14.90;4.07;;;;;;;2.51;96.47;103730.84;5022657;28;20025;-77
2022/01/18 00:39:36;;;;;;;16.95;4.95;;;;;;;2.61;96.61;103756.94;5029791;28;20029;-77
2022/01/18 00:42:02;;;;;;;13.77;4.28;;;;;;;2.64;96.51;103758.72;5028574;28;20025;-77
2022/01/18 00:44:27;;;;;;;12.65;4.07;;;;;;;2.66;96.48;103765.00;5027765;28;20056;-75
2022/01/18 00:46:52;;;;;;;14.95;5.18;;;;;;;2.66;96.71;103763.25;5023956;28;20021;-76
2022/01/18 00:49:18;;;;;;;16.55;5.60;;;;;;;2.72;96.54;103757.91;5027824;28;20028;-74
2022/01/18 00:51:49;;;;;;;29.08;6.95;;;;;;;2.75;96.61;103763.31;5015677;28;20025;-76
2022/01/18 00:54:21;;;;;;;17.55;6.15;;;;;;;2.75;96.62;103765.06;5027672;28;20021;-76
2022/01/18 00:56:48;;;;;;;13.68;5.53;;;;;;;2.80;96.65;103763.34;5026942;28;20069;-76
2022/01/18 00:59:13;;;;;;;19.95;5.50;;;;;;;2.80;96.75;103774.09;5023247;28;20033;-74
2022/01/18 01:01:38;;;;;;;18.15;6.20;;;;;;;2.84;96.67;103773.19;5023609;28;20287;-75
2022/01/18 01:04:05;;;;;;;25.80;7.35;;;;;;;2.87;96.93;103770.53;5026801;28;20025;-76
2022/01/18 01:06:31;;;;;;;27.80;7.20;;;;;;;2.93;97.05;103775.06;5021473;28;20482;-74
2022/01/18 01:08:57;;;;;;;14.48;6.50;;;;;;;2.97;96.63;103776.88;5024453;28;20096;-75
2022/01/18 01:11:23;;;;;;;25.25;7.30;;;;;;;2.99;96.98;103775.13;5015312;28;20043;-74
2022/01/18 01:13:52;;;;;;;14.88;6.72;;;;;;;2.99;97.00;103761.66;5028740;28;20017;-74
2022/01/18 01:35:08;;;;;;;17.73;6.72;;;;;;;3.25;97.22;103754.63;5025267;28;20036;-75
2022/01/18 01:45:34;;;;;;;35.47;9.05;;;;;;;3.30;97.10;103755.53;5010511;28;20034;-75
2022/01/18 01:48:00;;;;;;;32.83;8.60;;;;;;;3.30;97.19;103750.16;5012174;28;20034;-75
2022/01/18 01:50:33;;;;;;;22.80;7.65;;;;;;;3.30;97.47;103755.53;5027672;28;20048;-75
2022/01/18 01:52:58;;;;;;;24.52;7.45;;;;;;;3.33;97.56;103749.28;5010504;28;20032;-76
2022/01/18 01:55:24;;;;;;;30.48;7.80;;;;;;;3.35;97.48;103752.88;5026215;28;20440;-76
2022/01/18 01:57:50;;;;;;;20.83;8.32;;;;;;;3.38;97.39;103752.00;5027817;28;20532;-75
2022/01/18 02:00:18;;;;;;;27.42;7.88;;;;;;;3.40;97.43;103751.09;5010599;28;20026;-74
2022/01/18 02:02:44;;;;;;;20.90;6.93;;;;;;;3.42;97.44;103762.78;5007370;28;20037;-74
2022/01/18 02:05:11;;;;;;;25.67;8.50;;;;;;;3.43;97.46;103753.81;5010721;28;20028;-76
2022/01/18 02:07:36;;;;;;;23.17;7.55;;;;;;;3.44;97.64;103760.09;5021121;28;20370;-77
2022/01/18 02:10:04;;;;;;;29.20;8.68;;;;;;;3.45;97.48;103762.81;5014148;28;20017;-76
2022/01/18 02:12:29;;;;;;;24.05;7.68;;;;;;;3.44;97.53;103765.47;5027635;28;20029;-76
2022/01/18 02:14:58;;;;;;;31.25;8.35;;;;;;;3.45;97.43;103767.25;5020068;28;20034;-77
2022/01/18 02:22:54;;;;;;;35.95;8.85;;;;;;;3.50;97.62;103761.03;5016382;28;20056;-75
2022/01/18 02:25:19;;;;;;;27.02;8.25;;;;;;;3.50;nan;103758.34;5021356;28;20108;-76
2022/01/18 02:27:44;;;;;;;29.90;9.23;;;;;;;3.52;97.84;103770.00;5026798;28;20082;-74
2022/01/18 02:30:11;;;;;;;32.97;9.45;;;;;;;3.54;97.62;103767.28;5019284;28;20466;-74
2022/01/18 02:32:36;;;;;;;28.10;9.32;;;;;;;3.55;97.85;103764.63;5024552;28;20037;-77
2022/01/18 02:35:03;;;;;;;22.02;7.82;;;;;;;3.55;97.59;103756.56;5026887;28;20421;-74
2022/01/18 02:37:28;;;;;;;23.85;8.02;;;;;;;3.57;97.81;103756.56;5019644;28;20741;-74
2022/01/18 02:39:53;;;;;;;24.23;9.25;;;;;;;3.57;97.30;103748.47;5027795;28;20027;-76
2022/01/18 02:42:29;;;;;;;23.23;8.52;;;;;;;3.60;97.75;103751.19;5011599;28;20444;-75
2022/01/18 02:44:54;;;;;;;22.25;8.55;;;;;;;3.60;97.83;103753.88;5010814;28;20025;-75
2022/01/18 02:47:21;;;;;;;29.95;8.07;;;;;;;3.61;97.72;103742.22;5012900;28;20385;-74
2022/01/18 02:49:47;;;;;;;23.65;9.10;;;;;;;3.60;97.52;103737.72;5026389;28;20543;-77
2022/01/18 02:52:14;;;;;;;24.83;7.93;;;;;;;3.64;97.69;103735.94;5016251;28;20445;-77
2022/01/18 02:54:39;;;;;;;28.25;8.02;;;;;;;3.62;97.48;103735.94;5028127;28;20074;-75
2022/01/18 02:57:10;;;;;;;24.48;7.43;;;;;;;3.62;97.47;103741.31;5031035;28;20489;-74
2022/01/18 02:59:47;;;;;;;22.73;7.82;;;;;;;3.64;97.45;103738.63;5029700;28;20040;-75
2022/01/18 03:05:09;;;;;;;21.90;8.55;;;;;;;3.67;97.66;103746.72;5029758;28;20071;-75
2022/01/18 03:07:35;;;;;;;33.85;8.75;;;;;;;3.68;97.96;103754.78;5013802;28;20095;-75
2022/01/18 03:10:01;;;;;;;29.55;8.60;;;;;;;3.70;98.02;103754.81;5021469;28;20385;-74
2022/01/18 03:12:27;;;;;;;25.75;10.13;;;;;;;3.71;97.79;103751.22;5030550;28;20029;-76
2022/01/18 03:14:52;;;;;;;34.67;9.88;;;;;;;3.69;97.87;103743.16;5022543;28;20543;-74
2022/01/18 03:17:17;;;;;;;26.20;9.88;;;;;;;3.71;97.58;103746.72;5012553;28;20410;-76
2022/01/18 03:19:43;;;;;;;19.85;8.35;;;;;;;3.72;97.49;103748.53;5025294;28;20052;-75
2022/01/18 03:22:08;;;;;;;27.38;8.93;;;;;;;3.72;97.64;103748.53;5022153;28;20057;-74
2022/01/18 03:29:52;;;;;;;23.17;9.77;;;;;;;3.74;97.65;103756.63;5011286;28;20089;-76
2022/01/18 03:32:17;;;;;;;25.13;9.10;;;;;;;3.75;97.52;103758.41;5024109;28;20037;-76
2022/01/18 03:34:43;;;;;;;25.38;11.02;;;;;;;3.73;97.33;103763.81;5021415;28;20519;-75
2022/01/18 03:37:08;;;;;;;26.52;10.82;;;;;;;3.72;97.64;103753.91;5025385;28;20052;-76
2022/01/18 03:39:33;;;;;;;32.03;10.77;;;;;;;3.76;97.80;103761.09;5029731;28;20064;-76
2022/01/18 03:42:27;;;;;;;34.92;12.15;;;;;;;3.75;97.64;103755.72;5019248;28;20030;-76
2022/01/18 03:44:45;;;;;;;32.60;10.13;;;;;;;3.75;nan;103764.69;5028529;28;20444;-76
2022/01/18 03:47:12;;;;;;;28.90;10.55;;;;;;;3.78;97.75;103762.03;5015338;28;20025;-76
2022/01/18 03:49:38;;;;;;;37.60;11.77;;;;;;;3.77;97.67;103756.59;5026821;28;20014;-75
2022/01/18 03:52:03;;;;;;;36.45;10.80;;;;;;;3.77;97.68;103759.31;5020503;28;20037;-74
2022/01/18 03:54:29;;;;;;;28.42;10.50;;;;;;;3.77;97.56;103754.81;5028706;28;20037;-75
2022/01/18 03:56:54;;;;;;;27.92;10.40;;;;;;;3.81;97.86;103758.41;5029420;28;20095;-76
2022/01/18 03:59:19;;;;;;;32.63;11.57;;;;;;;3.80;97.70;103762.00;5027126;28;20041;-77
2022/01/18 04:01:44;;;;;;;41.03;11.73;;;;;;;3.81;97.52;103769.19;5013946;28;20033;-77
2022/01/18 04:04:10;;;;;;;35.67;12.82;;;;;;;3.82;97.43;103776.38;5021181;28;20017;-77
2022/01/18 04:06:35;;;;;;;33.67;11.27;;;;;;;3.82;98.27;103773.69;5027402;28;20025;-73
2022/01/18 04:09:00;;;;;;;36.75;13.43;;;;;;;3.81;97.57;103780.84;5028697;28;20112;-75
2022/01/18 04:11:27;;;;;;;46.28;13.43;;;;;;;3.79;97.80;103774.59;5028560;28;20389;-76
2022/01/18 04:13:52;;;;;;;41.13;13.80;;;;;;;3.81;97.61;103785.34;5026498;28;20470;-75
2022/01/18 04:16:18;;;;;;;32.30;12.00;;;;;;;3.81;97.48;103778.16;5017307;28;20082;-76
2022/01/18 04:18:53;;;;;;;46.05;12.25;;;;;;;3.82;97.46;103773.69;5026954;28;20044;-74
2022/01/18 04:29:12;;;;;;;23.58;11.38;;;;;;;3.87;97.19;103789.84;5021412;28;20425;-74
2022/01/18 04:31:37;;;;;;;36.85;13.00;;;;;;;3.88;97.11;103797.94;5016826;28;20484;-77
2022/01/18 04:34:03;;;;;;;33.53;12.48;;;;;;;3.86;97.23;103794.34;5016299;28;20448;-74
2022/01/18 04:36:29;;;;;;;40.25;12.05;;;;;;;3.84;97.03;103783.56;5019050;28;20063;-78
2022/01/18 04:38:56;;;;;;;29.02;11.75;;;;;;;3.86;97.28;103788.06;5014879;28;20026;-77
2022/01/18 04:41:27;;;;;;;27.95;12.10;;;;;;;3.85;97.54;103784.47;5023473;28;20018;-77
2022/01/18 04:49:11;;;;;;;28.50;11.38;;;;;;;3.84;97.38;103783.56;5013628;28;20116;-76
2022/01/18 04:51:37;;;;;;;33.70;11.88;;;;;;;3.86;97.38;103794.34;5022775;28;20030;-77
2022/01/18 04:54:05;;;;;;;34.85;12.63;;;;;;;3.83;97.27;103788.97;5020584;28;20025;-75
2022/01/18 04:58:59;;;;;;;26.98;11.65;;;;;;;3.82;97.15;103782.69;5023624;28;20385;-77
2022/01/18 05:01:24;;;;;;;33.25;12.43;;;;;;;3.80;97.21;103787.16;5024424;28;20034;-75
2022/01/18 05:03:50;;;;;;;34.95;12.90;;;;;;;3.80;97.09;103797.91;5017539;28;20029;-75
2022/01/18 05:06:17;;;;;;;37.03;12.70;;;;;;;3.79;97.08;103806.91;5025546;28;20087;-75
2022/01/18 05:08:43;;;;;;;28.60;11.75;;;;;;;3.81;97.35;103801.50;5028027;28;20477;-77
2022/01/18 05:11:13;;;;;;;29.95;11.65;;;;;;;3.80;96.90;103800.59;5029365;28;20025;-77
2022/01/18 05:21:26;;;;;;;32.33;11.67;;;;;;;3.82;97.17;103806.91;5025166;28;20038;-77
2022/01/18 05:23:51;;;;;;;32.15;12.60;;;;;;;3.81;97.07;103807.78;5039541;28;20706;-77
2022/01/18 05:26:17;;;;;;;34.53;13.73;;;;;;;3.80;97.21;103811.38;5028656;28;20105;-77
2022/01/18 05:28:42;;;;;;;32.13;12.25;;;;;;;3.81;97.64;103804.19;5027079;28;20025;-76
2022/01/18 05:31:08;;;;;;;33.22;12.25;;;;;;;3.78;97.24;103796.13;5016106;28;20108;-75
2022/01/18 05:33:33;;;;;;;34.08;12.52;;;;;;;3.81;97.18;103805.09;5019593;28;20477;-77
2022/01/18 05:35:59;;;;;;;43.42;12.82;;;;;;;3.81;96.92;103798.81;5027653;28;20021;-76
2022/01/18 05:38:24;;;;;;;32.22;12.25;;;;;;;3.82;97.33;103804.22;5020799;28;20029;-74
2022/01/18 05:40:49;;;;;;;31.00;12.20;;;;;;;3.80;97.49;103797.03;5026405;28;20489;-77
2022/01/18 05:43:16;;;;;;;33.97;11.65;;;;;;;3.80;97.48;103795.22;5007662;28;20022;-77
2022/01/18 05:45:41;;;;;;;32.08;12.23;;;;;;;3.76;97.63;103801.50;5006852;28;20045;-77
2022/01/18 05:48:06;;;;;;;35.85;12.50;;;;;;;3.76;97.56;103796.09;5019356;28;20468;-74
2022/01/18 05:50:32;;;;;;;36.08;12.65;;;;;;;3.76;97.43;103796.09;5028112;28;20049;-75
2022/01/18 05:52:57;;;;;;;50.95;12.15;;;;;;;3.78;97.22;103793.44;5013978;28;20034;-77
2022/01/18 05:55:23;;;;;;;27.13;12.55;;;;;;;3.77;97.47;103797.91;5027450;28;20029;-74
2022/01/18 05:57:48;;;;;;;30.33;13.02;;;;;;;3.75;97.38;103797.00;5027584;28;20059;-78
2022/01/18 06:00:20;;;;;;;36.33;12.50;;;;;;;3.79;97.45;103797.91;5022327;28;20033;-77
2022/01/18 06:03:02;;;;;;;29.23;11.68;;;;;;;3.76;97.39;103798.78;5018244;28;20025;-76
2022/01/18 06:08:12;;;;;;;29.25;11.85;;;;;;;3.75;97.41;103788.03;5014797;28;20056;-76
2022/01/18 06:10:39;;;;;;;38.65;13.10;;;;;;;3.77;97.23;103789.81;5027779;28;20021;-74
2022/01/18 06:13:07;;;;;;;31.20;11.30;;;;;;;3.75;97.30;103793.41;5027329;28;20029;-77
2022/01/18 06:15:33;;;;;;;31.08;11.05;;;;;;;3.76;97.22;103800.59;5018957;28;20021;-75
2022/01/18 06:17:58;;;;;;;23.00;10.55;;;;;;;3.77;97.42;103799.69;5010326;28;20490;-77
2022/01/18 06:20:24;;;;;;;32.22;10.93;;;;;;;3.78;97.40;103804.22;5028023;28;20018;-77
2022/01/18 06:22:51;;;;;;;29.02;10.70;;;;;;;3.80;97.41;103802.41;5024456;28;20060;-75
2022/01/18 06:25:17;;;;;;;29.75;11.02;;;;;;;3.80;97.27;103799.72;5025250;28;20017;-75
2022/01/18 06:27:43;;;;;;;26.65;10.75;;;;;;;3.80;97.32;103791.63;5020968;28;20129;-77
2022/01/18 06:30:10;;;;;;;27.73;10.07;;;;;;;3.81;97.22;103804.19;5023729;28;20100;-76
2022/01/18 06:32:36;;;;;;;23.35;9.65;;;;;;;3.79;97.16;103796.13;5009672;28;20428;-77
2022/01/18 06:35:02;;;;;;;36.70;11.38;;;;;;;3.80;97.26;103797.03;5022870;28;20481;-75
2022/01/18 06:37:27;;;;;;;31.27;9.93;;;;;;;3.77;97.21;103787.13;5022165;28;20060;-77
2022/01/18 06:39:53;;;;;;;31.58;11.00;;;;;;;3.77;97.64;103795.19;5027571;28;20030;-78
2022/01/18 06:42:20;;;;;;;34.47;12.00;;;;;;;3.78;97.57;103788.06;5010881;28;20030;-77
2022/01/18 06:44:45;;;;;;;28.67;9.50;;;;;;;3.78;97.28;103794.34;5025192;28;20025;-77
2022/01/18 06:47:11;;;;;;;30.55;10.18;;;;;;;3.79;97.66;103797.91;5014994;28;20030;-75
2022/01/18 06:49:36;;;;;;;28.38;11.68;;;;;;;3.77;97.17;103800.59;5023700;28;20420;-75
2022/01/18 06:52:02;;;;;;;29.67;10.25;;;;;;;3.74;97.41;103792.53;5017999;28;20030;-75
2022/01/18 06:54:27;;;;;;;40.28;11.70;;;;;;;3.78;97.57;103798.81;5017592;28;20396;-75
2022/01/18 06:56:52;;;;;;;25.83;10.82;;;;;;;3.79;97.38;103795.22;5010556;28;20042;-74
2022/01/18 06:59:18;;;;;;;39.58;12.10;;;;;;;3.79;97.49;103801.50;5020734;28;20026;-77
2022/01/18 07:01:43;;;;;;;37.85;10.55;;;;;;;3.81;97.66;103805.09;5030262;28;20515;-77
2022/01/18 07:04:09;;;;;;;30.30;10.02;;;;;;;3.80;97.55;103805.09;5037094;28;20025;-77
2022/01/18 07:06:34;;;;;;;27.48;11.95;;;;;;;3.80;97.48;103816.75;5022620;28;20029;-77
2022/01/18 07:09:00;;;;;;;31.80;10.20;;;;;;;3.79;97.27;103811.38;5018617;28;20029;-77
2022/01/18 07:11:26;;;;;;;37.28;11.90;;;;;;;3.80;97.65;103814.06;5026547;28;20524;-75
2022/01/18 07:13:51;;;;;;;33.22;10.27;;;;;;;3.79;97.38;103809.59;5025911;28;20033;-76
2022/01/18 07:16:17;;;;;;;32.75;11.20;;;;;;;3.81;97.50;103810.47;5016845;28;20030;-75
2022/01/18 07:18:43;;;;;;;32.08;11.05;;;;;;;3.82;97.41;103819.44;5021586;28;20025;-74
2022/01/18 07:21:10;;;;;;;35.03;10.43;;;;;;;3.81;97.56;103809.59;5018189;28;20026;-77
2022/01/18 07:23:37;;;;;;;38.42;11.55;;;;;;;3.83;97.33;103822.16;5007565;28;20068;-77
2022/01/18 07:26:02;;;;;;;34.28;11.32;;;;;;;3.82;97.14;103824.84;5015665;28;20033;-75
2022/01/18 07:28:28;;;;;;;32.63;10.25;;;;;;;3.85;97.32;103822.16;5017130;28;20037;-77
2022/01/18 07:30:53;;;;;;;25.90;10.35;;;;;;;3.84;97.41;103832.03;5020833;28;20133;-77
2022/01/18 07:33:18;;;;;;;32.60;11.00;;;;;;;3.84;97.30;103826.66;5014387;28;20022;-77
2022/01/18 07:35:44;;;;;;;31.58;11.30;;;;;;;3.84;97.16;103840.13;5009765;28;20021;-77
2022/01/18 07:38:15;;;;;;;37.08;11.95;;;;;;;3.83;97.15;103832.94;5010435;28;20033;-77
2022/01/18 07:40:41;;;;;;;25.98;10.57;;;;;;;3.84;97.20;103829.34;5008168;28;20060;-74
2022/01/18 07:43:08;;;;;;;33.65;11.32;;;;;;;3.87;97.31;103836.56;5010987;28;20397;-74
2022/01/18 07:45:34;;;;;;;45.17;12.10;;;;;;;3.86;97.55;103834.72;5016732;28;20517;-77
2022/01/18 07:47:59;;;;;;;40.35;11.93;;;;;;;3.87;97.35;103838.31;5013987;28;20036;-75
2022/01/18 07:50:25;;;;;;;39.33;12.15;;;;;;;3.87;97.60;103836.56;5024065;28;20052;-77
2022/01/18 07:52:51;;;;;;;27.58;10.90;;;;;;;3.88;97.64;103840.16;5023239;28;20037;-74
2022/01/18 07:55:16;;;;;;;30.50;10.95;;;;;;;3.86;97.40;103839.22;5029435;28;20071;-77
2022/01/18 07:57:43;;;;;;;29.50;10.68;;;;;;;3.90;97.45;103841.94;5018584;28;20057;-76
2022/01/18 08:00:13;;;;;;;36.50;11.55;;;;;;;3.92;97.68;103844.66;5013545;28;20031;-77
2022/01/18 08:02:40;;;;;;;33.70;10.25;;;;;;;3.94;97.60;103848.22;5020886;28;20037;-77
2022/01/18 08:05:07;;;;;;;34.70;11.80;;;;;;;3.95;97.50;103844.63;5013241;28;20022;-76
2022/01/18 08:07:32;;;;;;;37.10;11.70;;;;;;;3.96;97.69;103850.03;5027277;28;20500;-75
2022/01/18 08:09:58;;;;;;;27.73;10.77;;;;;;;3.97;97.55;103849.16;5027222;28;20021;-77
2022/01/18 08:12:24;;;;;;;35.45;12.38;;;;;;;3.99;97.40;103849.16;5023537;28;20119;-75
2022/01/18 08:14:50;;;;;;;40.70;12.02;;;;;;;4.01;97.42;103847.34;5025532;28;20032;-75
2022/01/18 08:17:16;;;;;;;40.78;12.27;;;;;;;4.02;97.56;103846.47;5010716;28;20029;-75
2022/01/18 08:19:41;;;;;;;50.83;13.90;;;;;;;4.04;97.56;103850.97;5021452;28;20026;-76
2022/01/18 08:22:08;;;;;;;42.30;13.80;;;;;;;4.06;97.47;103848.28;5015864;28;20109;-74
2022/01/18 08:24:34;;;;;;;42.25;12.93;;;;;;;4.08;97.52;103842.00;5023911;28;20022;-77
2022/01/18 08:26:59;;;;;;;35.63;11.88;;;;;;;4.09;97.70;103835.69;5022851;28;20021;-75
2022/01/18 08:29:24;;;;;;;46.35;12.70;;;;;;;4.13;97.90;103836.63;5018849;28;20029;-75
2022/01/18 08:31:49;;;;;;;46.42;11.13;;;;;;;4.18;97.39;103840.22;5023022;28;20470;-77
2022/01/18 08:34:15;;;;;;;44.97;12.48;;;;;;;4.20;97.84;103838.44;5025791;28;20033;-77
2022/01/18 08:36:40;;;;;;;46.05;12.27;;;;;;;4.22;97.63;103839.34;5022196;28;20021;-75
2022/01/18 08:39:07;;;;;;;41.28;12.23;;;;;;;4.24;97.63;103836.63;5030138;28;20075;-75
2022/01/18 08:41:33;;;;;;;43.22;12.43;;;;;;;4.25;97.57;103838.47;5008583;28;20104;-77
2022/01/18 08:43:59;;;;;;;42.80;12.43;;;;;;;4.23;97.38;103824.97;5022505;28;20024;-77
2022/01/18 08:46:24;;;;;;;46.03;13.23;;;;;;;4.26;97.62;103824.97;5021534;28;20104;-77
2022/01/18 08:48:50;;;;;;;47.70;12.57;;;;;;;4.29;97.75;103834.84;5015231;28;20034;-75
2022/01/18 08:51:16;;;;;;;49.95;14.70;;;;;;;4.31;97.50;103839.34;5023556;28;20033;-77
2022/01/18 08:53:42;;;;;;;43.38;14.02;;;;;;;4.35;97.66;103843.84;5016953;28;20116;-77
2022/01/18 08:56:08;;;;;;;42.95;14.13;;;;;;;4.37;97.49;103848.34;5029105;28;20132;-76
2022/01/18 08:58:34;;;;;;;49.17;13.05;;;;;;;4.39;97.72;103846.56;5016278;28;20463;-76
2022/01/18 09:01:04;;;;;;;42.70;12.27;;;;;;;4.44;98.14;103842.97;5019622;28;20072;-74
2022/01/18 09:03:30;;;;;;;44.95;12.95;;;;;;;4.49;97.75;103846.56;5033718;28;20116;-75
2022/01/18 09:05:56;;;;;;;40.83;13.55;;;;;;;4.55;97.66;103849.28;5028702;28;20120;-77
2022/01/18 09:08:22;;;;;;;50.60;14.95;;;;;;;4.61;98.02;103849.25;5027104;28;20025;-74
2022/01/18 09:10:48;;;;;;;49.15;14.27;;;;;;;4.67;97.83;103844.81;5029072;28;20385;-74
2022/01/18 09:13:17;;;;;;;44.45;14.52;;;;;;;4.73;97.76;103844.78;5028388;28;20064;-77
2022/01/18 09:15:43;;;;;;;52.90;13.27;;;;;;;4.80;97.99;103850.19;5008440;28;20030;-77
2022/01/18 09:18:09;;;;;;;49.17;13.85;;;;;;;4.85;97.65;103851.09;5012464;28;20044;-76
2022/01/18 09:20:36;;;;;;;44.47;13.52;;;;;;;4.89;97.55;103856.47;5028669;28;20104;-76
2022/01/18 09:23:01;;;;;;;41.65;12.57;;;;;;;4.91;97.41;103855.59;5026414;28;20025;-75
2022/01/18 09:25:28;;;;;;;37.80;13.23;;;;;;;4.96;97.57;103859.19;5025278;28;20541;-74
2022/01/18 09:27:55;;;;;;;38.88;12.15;;;;;;;4.97;97.24;103855.56;5025250;28;20026;-75
2022/01/18 09:30:24;;;;;;;45.88;14.60;;;;;;;5.01;97.51;103857.38;5024235;28;20675;-77
2022/01/18 09:32:50;;;;;;;38.78;13.15;;;;;;;5.05;97.78;103858.28;5019573;28;20059;-77
2022/01/18 09:35:16;;;;;;;36.42;13.75;;;;;;;5.05;97.43;103859.16;5028886;28;20034;-77
2022/01/18 09:37:42;;;;;;;47.90;13.85;;;;;;;5.13;97.25;103864.56;5015484;28;20061;-77
2022/01/18 09:40:09;;;;;;;41.08;14.38;;;;;;;5.17;97.37;103860.03;5029050;28;20064;-77
2022/01/18 09:42:37;;;;;;;50.38;15.18;;;;;;;5.23;97.38;103860.06;5013557;28;20041;-75
2022/01/18 09:45:09;;;;;;;40.35;14.02;;;;;;;5.31;97.37;103859.13;5023835;28;20025;-75
2022/01/18 09:47:39;;;;;;;49.17;14.13;;;;;;;5.42;97.37;103877.13;5030532;28;20030;-77
2022/01/18 09:50:07;;;;;;;51.33;15.20;;;;;;;5.48;97.68;103869.88;5028814;28;20457;-76
2022/01/18 09:52:32;;;;;;;42.63;13.18;;;;;;;5.58;97.52;103862.66;5022174;28;20065;-77
2022/01/18 09:54:58;;;;;;;45.50;15.25;;;;;;;5.66;97.83;103868.94;5026086;28;20052;-77
2022/01/18 09:57:23;;;;;;;45.20;15.82;;;;;;;5.75;97.37;103874.31;5017455;28;20045;-75
2022/01/18 09:59:49;;;;;;;51.25;15.82;;;;;;;5.81;97.30;103874.28;5022196;28;20041;-77
2022/01/18 10:02:14;;;;;;;43.40;15.40;;;;;;;5.89;97.18;103877.84;5012696;28;20022;-76
2022/01/18 10:04:41;;;;;;;47.17;14.32;;;;;;;5.94;97.00;103871.56;5021786;28;20029;-75
2022/01/18 10:07:07;;;;;;;45.85;15.02;;;;;;;5.97;96.50;103874.25;5025662;28;20067;-76
2022/01/18 10:09:34;;;;;;;39.50;14.48;;;;;;;6.02;96.64;103875.16;5027945;28;20029;-76
2022/01/18 10:12:13;;;;;;;39.67;13.60;;;;;;;6.09;96.54;103874.19;5027048;28;20040;-77
2022/01/18 10:15:00;;;;;;;41.20;13.65;;;;;;;6.12;96.42;103880.50;5020715;28;20064;-77
2022/01/18 10:17:39;;;;;;;38.30;13.00;;;;;;;6.16;95.75;103875.97;5008976;28;20112;-77
2022/01/18 10:20:16;;;;;;;42.90;14.68;;;;;;;6.22;96.20;103875.03;5026902;28;20501;-75
2022/01/18 10:22:48;;;;;;;40.45;13.82;;;;;;;6.30;96.37;103868.69;5022185;28;20425;-77
2022/01/18 10:25:26;;;;;;;34.77;12.57;;;;;;;6.33;95.60;103875.88;5026123;28;20037;-77
2022/01/18 10:27:55;;;;;;;42.20;13.57;;;;;;;6.37;95.37;103874.94;5027992;28;20312;-75
2022/01/18 10:30:44;;;;;;;35.60;13.13;;;;;;;6.41;95.69;103868.59;5023830;28;20018;-76
2022/01/18 10:33:14;;;;;;;33.92;12.32;;;;;;;6.45;95.29;103866.78;5007364;28;20052;-74
2022/01/18 10:36:08;;;;;;;39.42;14.57;;;;;;;6.55;95.47;103865.81;5024829;28;20021;-75
2022/01/18 10:38:34;;;;;;;41.95;13.93;;;;;;;6.62;95.22;103868.47;5026170;28;20393;-77
2022/01/18 10:41:27;;;;;;;39.20;13.85;;;;;;;6.76;95.42;103862.97;5024229;28;20033;-77
2022/01/18 10:44:09;;;;;;;39.08;15.18;;;;;;;6.87;94.84;103862.88;5024965;28;20501;-77
2022/01/18 10:46:36;;;;;;;37.28;13.68;;;;;;;6.93;93.51;103853.78;5007307;28;20053;-78
2022/01/18 10:49:03;;;;;;;40.13;15.25;;;;;;;7.02;93.68;103851.00;5014945;28;20033;-75
2022/01/18 10:51:33;;;;;;;32.53;13.90;;;;;;;7.18;95.00;103854.44;5027153;28;20038;-75
2022/01/18 10:54:02;;;;;;;33.60;12.75;;;;;;;7.24;93.67;103836.34;5017157;28;20036;-76
2022/01/18 10:56:41;;;;;;;38.60;13.82;;;;;;;7.35;93.32;103841.63;5026807;28;20053;-75
2022/01/18 10:59:07;;;;;;;39.33;13.52;;;;;;;7.43;94.19;103844.28;5012859;28;20135;-77
2022/01/18 11:01:32;;;;;;;33.97;13.00;;;;;;;7.51;92.32;103839.69;5020452;28;20033;-75
2022/01/18 11:04:07;;;;;;;30.05;13.20;;;;;;;7.57;92.40;103832.34;5024653;28;20036;-76
2022/01/18 11:06:34;;;;;;;41.10;14.25;;;;;;;7.62;91.62;103833.19;5027204;28;20488;-76
2022/01/18 11:09:14;;;;;;;33.30;14.13;;;;;;;7.67;91.64;103827.72;5027669;28;20026;-75
2022/01/18 11:11:47;;;;;;;30.67;12.40;;;;;;;7.72;93.11;103822.25;5018915;28;20122;-77
2022/01/18 11:14:17;;;;;;;38.90;11.98;;;;;;;7.77;92.46;103826.69;5027195;28;20037;-76
2022/01/18 11:16:44;;;;;;;34.50;14.23;;;;;;;7.86;92.32;103828.38;5019636;28;20034;-77
2022/01/18 11:21:46;;;;;;;31.85;12.65;;;;;;;7.96;91.17;103823.72;5030771;28;20029;-77
2022/01/18 11:24:12;;;;;;;28.80;9.73;;;;;;;7.97;90.98;103828.22;5030641;28;20029;-76
2022/01/18 11:26:39;;;;;;;40.85;12.02;;;;;;;8.01;90.79;103820.03;5020198;28;20026;-75
2022/01/18 11:29:05;;;;;;;32.22;11.57;;;;;;;8.07;90.88;103819.09;5021053;28;20566;-76
2022/01/18 11:31:31;;;;;;;26.75;9.43;;;;;;;8.11;88.13;103812.66;5022566;28;20014;-76
2022/01/18 11:33:59;;;;;;;31.70;9.50;;;;;;;8.17;88.77;103809.88;5022884;28;20722;-76
2022/01/18 11:36:32;;;;;;;25.35;9.45;;;;;;;8.26;88.98;103817.00;5027953;28;20029;-77
2022/01/18 11:39:02;;;;;;;28.95;10.05;;;;;;;8.30;87.66;103811.50;5029436;28;20040;-76
2022/01/18 11:41:31;;;;;;;26.98;9.70;;;;;;;8.35;88.80;103806.00;5021512;28;20049;-76
2022/01/18 11:43:59;;;;;;;32.58;11.00;;;;;;;8.36;87.49;103805.06;5019607;28;20056;-76
2022/01/18 11:46:36;;;;;;;27.90;10.60;;;;;;;8.34;87.05;103801.47;5032694;28;20414;-77
2022/01/18 11:49:21;;;;;;;26.92;9.05;;;;;;;8.37;87.90;103801.47;5025843;28;20489;-76
2022/01/18 11:52:05;;;;;;;29.40;9.45;;;;;;;8.39;87.71;103803.25;5028940;28;20029;-75
2022/01/18 11:54:39;;;;;;;25.55;8.73;;;;;;;8.53;87.24;103808.44;5029054;28;20040;-77
2022/01/18 11:57:23;;;;;;;24.85;9.13;;;;;;;8.66;88.60;103803.69;5025623;28;20528;-75
2022/01/18 11:59:48;;;;;;;26.83;8.95;;;;;;;8.74;84.22;103801.75;5021274;28;20034;-75
2022/01/18 12:02:29;;;;;;;29.15;8.40;;;;;;;8.82;87.56;103807.06;5025734;28;20128;-76
2022/01/18 12:04:57;;;;;;;36.78;9.10;;;;;;;8.90;85.31;103800.56;5016062;28;20105;-77
2022/01/18 12:07:36;;;;;;;24.05;8.70;;;;;;;8.89;86.14;103797.88;5030480;28;20021;-75
2022/01/18 12:10:08;;;;;;;28.05;8.73;;;;;;;8.93;84.18;103796.91;5016936;28;20029;-76
2022/01/18 12:12:40;;;;;;;27.35;9.20;;;;;;;8.93;84.87;103794.19;5028630;28;20107;-75
2022/01/18 12:15:26;;;;;;;28.15;8.23;;;;;;;8.97;85.68;103792.31;5015600;28;20390;-76
2022/01/18 12:17:57;;;;;;;40.88;9.60;;;;;;;8.98;84.33;103785.97;5016512;28;20026;-76
2022/01/18 12:20:38;;;;;;;33.33;8.00;;;;;;;9.06;85.01;103790.31;5028242;28;20022;-75
2022/01/18 12:23:06;;;;;;;32.58;8.15;;;;;;;9.02;82.23;103790.41;5017501;28;20056;-76
2022/01/18 12:25:35;;;;;;;34.70;8.98;;;;;;;8.99;81.34;103793.16;5029047;28;20150;-78
2022/01/18 12:34:38;;;;;;;24.00;8.25;;;;;;;9.06;84.01;103779.47;5020678;28;20045;-77
2022/01/18 12:37:11;;;;;;;22.58;7.25;;;;;;;9.05;80.27;103780.41;5029513;28;20021;-77
2022/01/18 12:39:53;;;;;;;;;;;;;;;9.06;84.18;103773.13;5027378;28;20397;-76
2022/01/18 12:44:20;;;;;;;25.58;7.88;;;;;;;9.00;79.37;103766.00;5016193;28;19913;-77
2022/01/18 12:45:05;;;;;;;24.00;7.82;;;;;;;8.99;79.36;103768.72;5016041;28;20139;-77